Time;durP1;ratioP1;P1;durP2;ratioP2;P2;SDS_P1;SDS_P2;PMS_P1;PMS_P2;Temp;Humidity;BMP_temperature;BMP_pressure;BME280_temperature;BME280_humidity;BME280_pressure;Samples;Min_cycle;Max_cycle;Signal;HPM_P1;HPM_P2
2022/04/11 00:00:25;;;;;;;8.93;3.50;;;;;;;;;;5013352;28;20060;-73
2022/04/11 00:02:50;;;;;;;4.73;2.63;;;;;;;;;;5013122;28;20219;-74
2022/04/11 00:05:16;;;;;;;6.37;3.10;;;;;;;;;;5013576;28;20022;-73
2022/04/11 00:07:42;;;;;;;4.43;2.90;;;;;;;;;;5013782;28;20022;-73
2022/04/11 00:10:08;;;;;;;7.37;3.80;;;;;;;;;;5027873;28;20033;-72
2022/04/11 00:12:35;;;;;;;6.00;3.03;;;;;;;;;;5011616;28;20091;-73
2022/04/11 00:15:04;;;;;;;8.33;3.57;;;;;;;;;;5011421;28;20030;-73
2022/04/11 00:17:29;;;;;;;4.97;3.17;;;;;;;;;;5011348;28;20121;-73
2022/04/11 00:19:55;;;;;;;7.40;3.43;;;;;;;;;;5012751;28;20120;-73
2022/04/11 00:22:20;;;;;;;8.87;3.90;;;;;;;;;;5011500;28;20099;-73
2022/04/11 00:24:46;;;;;;;5.60;3.23;;;;;;;;;;5011550;28;20465;-73
2022/04/11 00:27:11;;;;;;;5.40;3.70;;;;;;;;;;5027753;28;20037;-74
2022/04/11 00:29:37;;;;;;;8.43;3.60;;;;;;;;;;5012636;28;20518;-74
2022/04/11 00:32:03;;;;;;;7.67;3.83;;;;;;;;;;5011261;28;20029;-74
2022/04/11 00:34:28;;;;;;;6.00;3.93;;;;;;;;;;5011311;28;20374;-72
2022/04/11 00:36:54;;;;;;;7.93;4.33;;;;;;;;;;5011522;28;20026;-74
2022/04/11 00:39:19;;;;;;;8.33;4.13;;;;;;;;;;5011128;28;20025;-74
2022/04/11 00:41:45;;;;;;;4.33;3.17;;;;;;;;;;5012507;28;20029;-73
2022/04/11 00:44:10;;;;;;;7.47;3.33;;;;;;;;;;5010778;28;20026;-74
2022/04/11 00:46:36;;;;;;;9.27;3.67;;;;;;;;;;5012539;28;20493;-74
2022/04/11 00:49:01;;;;;;;6.93;3.87;;;;;;;;;;5012455;28;20030;-73
2022/04/11 00:51:27;;;;;;;5.77;3.80;;;;;;;;;;5012196;28;20382;-73
2022/04/11 00:53:56;;;;;;;12.97;5.40;;;;;;;;;;5027652;28;20032;-73
2022/04/11 00:56:26;;;;;;;9.07;3.73;;;;;;;;;;5010910;28;20053;-73
2022/04/11 00:58:51;;;;;;;5.03;3.20;;;;;;;;;;5010782;28;20026;-73
2022/04/11 01:01:17;;;;;;;6.23;3.20;;;;;;;;;;4994231;28;20038;-73
2022/04/11 01:03:42;;;;;;;8.77;3.27;;;;;;;;;;5010759;28;20034;-73
2022/04/11 01:06:08;;;;;;;6.77;3.03;;;;;;;;;;5010482;28;20426;-73
2022/04/11 01:08:36;;;;;;;3.40;2.83;;;;;;;;;;5010388;28;20033;-72
2022/04/11 01:11:02;;;;;;;7.70;3.00;;;;;;;;;;5010591;28;20030;-73
2022/04/11 01:13:29;;;;;;;3.83;2.53;;;;;;;;;;5010608;28;20053;-73
2022/04/11 01:15:59;;;;;;;6.77;2.90;;;;;;;;;;5010488;28;20036;-73
2022/04/11 01:18:25;;;;;;;4.83;3.07;;;;;;;;;;5010192;28;20030;-72
2022/04/11 01:20:50;;;;;;;7.53;2.63;;;;;;;;;;5026695;28;20072;-74
2022/04/11 01:23:16;;;;;;;5.33;3.37;;;;;;;;;;5011466;28;20030;-73
2022/04/11 01:25:47;;;;;;;6.13;2.63;;;;;;;;;;5011571;28;20030;-73
2022/04/11 01:28:13;;;;;;;5.60;3.10;;;;;;;;;;5010790;28;20096;-73
2022/04/11 01:30:38;;;;;;;6.60;3.07;;;;;;;;;;5010300;28;20286;-73
2022/04/11 01:33:31;;;;;;;7.03;3.53;;;;;;;;;;5011235;28;20131;-73
2022/04/11 01:35:57;;;;;;;7.03;2.93;;;;;;;;;;5011633;28;20018;-73
2022/04/11 01:38:23;;;;;;;8.37;3.57;;;;;;;;;;5011398;28;20387;-73
2022/04/11 01:40:53;;;;;;;5.23;3.30;;;;;;;;;;5010347;28;20033;-73
2022/04/11 01:43:19;;;;;;;9.70;3.13;;;;;;;;;;5010921;28;20029;-73
2022/04/11 01:45:45;;;;;;;4.97;2.83;;;;;;;;;;5009858;28;20397;-73
2022/04/11 01:48:10;;;;;;;7.70;2.93;;;;;;;;;;5010559;28;20030;-73
2022/04/11 01:50:36;;;;;;;7.57;3.90;;;;;;;;;;5011022;28;20532;-72
2022/04/11 01:53:18;;;;;;;6.43;3.13;;;;;;;;;;5009751;28;20026;-73
2022/04/11 01:55:44;;;;;;;6.53;3.10;;;;;;;;;;5011600;28;20042;-73
2022/04/11 01:58:10;;;;;;;7.47;3.60;;;;;;;;;;5010845;28;20060;-74
2022/04/11 02:00:36;;;;;;;7.90;4.00;;;;;;;;;;5009669;28;20407;-73
2022/04/11 02:03:04;;;;;;;8.03;3.27;;;;;;;;;;5011164;28;20101;-73
2022/04/11 02:05:30;;;;;;;11.10;3.43;;;;;;;;;;5009859;28;20064;-73
2022/04/11 02:07:56;;;;;;;7.97;3.43;;;;;;;;;;5011096;28;20498;-73
2022/04/11 02:10:22;;;;;;;10.93;3.27;;;;;;;;;;5009304;28;20021;-74
2022/04/11 02:12:48;;;;;;;6.50;3.53;;;;;;;;;;5011108;28;20022;-74
2022/04/11 02:15:14;;;;;;;9.03;3.97;;;;;;;;;;5010530;28;20053;-74
2022/04/11 02:17:40;;;;;;;8.03;3.70;;;;;;;;;;5009558;28;20358;-73
2022/04/11 02:20:07;;;;;;;6.40;3.57;;;;;;;;;;5009081;28;20014;-73
2022/04/11 02:23:02;;;;;;;7.20;3.83;;;;;;;;;;5006048;28;20042;-73
2022/04/11 02:25:30;;;;;;;9.67;4.07;;;;;;;;;;4993340;28;20038;-73
2022/04/11 02:27:59;;;;;;;8.33;4.03;;;;;;;;;;4989498;28;20041;-74
2022/04/11 02:30:25;;;;;;;6.20;3.17;;;;;;;;;;4990807;28;20033;-73
2022/04/11 02:32:51;;;;;;;5.90;3.40;;;;;;;;;;5005877;28;20523;-73
2022/04/11 02:35:18;;;;;;;7.73;3.33;;;;;;;;;;4990870;28;20298;-74
2022/04/11 02:37:46;;;;;;;8.37;4.07;;;;;;;;;;5006107;28;20413;-72
2022/04/11 02:40:13;;;;;;;5.63;3.60;;;;;;;;;;5005606;28;20022;-73
2022/04/11 02:42:43;;;;;;;7.40;3.07;;;;;;;;;;5005664;28;20470;-73
2022/04/11 02:45:10;;;;;;;7.90;3.93;;;;;;;;;;5005476;28;20022;-73
2022/04/11 02:47:35;;;;;;;6.50;3.57;;;;;;;;;;4989104;28;20093;-73
2022/04/11 02:50:01;;;;;;;10.03;4.30;;;;;;;;;;5005287;28;20022;-72
2022/04/11 02:52:28;;;;;;;7.77;3.70;;;;;;;;;;4990491;28;20022;-73
2022/04/11 02:54:55;;;;;;;8.10;3.83;;;;;;;;;;5005250;28;20026;-72
2022/04/11 02:57:22;;;;;;;8.80;4.13;;;;;;;;;;4990084;28;20037;-73
2022/04/11 02:59:48;;;;;;;7.10;3.53;;;;;;;;;;4990108;28;20023;-74
2022/04/11 03:02:14;;;;;;;5.03;3.57;;;;;;;;;;4988918;28;20527;-74
2022/04/11 03:04:40;;;;;;;8.00;4.23;;;;;;;;;;5005640;28;20113;-73
2022/04/11 03:07:05;;;;;;;10.77;4.30;;;;;;;;;;5005277;28;20154;-72
2022/04/11 03:09:31;;;;;;;6.20;4.07;;;;;;;;;;4990189;28;20030;-73
2022/04/11 03:11:57;;;;;;;13.43;4.83;;;;;;;;;;4990409;28;20030;-72
2022/04/11 03:14:22;;;;;;;8.93;3.63;;;;;;;;;;5005123;28;20121;-72
2022/04/11 03:16:48;;;;;;;11.23;6.03;;;;;;;;;;5005094;28;20031;-74
2022/04/11 03:19:14;;;;;;;10.93;3.93;;;;;;;;;;5004617;28;20023;-74
2022/04/11 03:21:39;;;;;;;15.10;4.30;;;;;;;;;;5001202;28;20485;-73
2022/04/11 03:24:05;;;;;;;7.30;3.87;;;;;;;;;;5008238;28;20061;-73
2022/04/11 03:26:31;;;;;;;6.30;3.73;;;;;;;;;;5008172;28;20362;-73
2022/04/11 03:28:56;;;;;;;9.67;4.40;;;;;;;;;;5009732;28;20057;-73
2022/04/11 03:31:22;;;;;;;7.50;4.17;;;;;;;;;;5009470;28;20030;-73
2022/04/11 03:33:47;;;;;;;8.77;4.13;;;;;;;;;;5008454;28;20473;-73
2022/04/11 03:36:13;;;;;;;5.33;4.03;;;;;;;;;;5008177;28;20026;-73
2022/04/11 03:38:38;;;;;;;7.40;3.67;;;;;;;;;;5008448;28;20113;-73
2022/04/11 03:41:04;;;;;;;11.10;4.67;;;;;;;;;;5009153;28;20041;-72
2022/04/11 03:43:29;;;;;;;13.23;4.10;;;;;;;;;;5008026;28;20069;-72
2022/04/11 03:45:56;;;;;;;7.83;4.20;;;;;;;;;;5008313;28;20030;-73
2022/04/11 03:48:22;;;;;;;5.83;3.77;;;;;;;;;;5007988;28;20026;-74
2022/04/11 03:50:47;;;;;;;5.77;3.53;;;;;;;;;;5009429;28;20493;-73
2022/04/11 03:53:13;;;;;;;6.70;3.50;;;;;;;;;;5007864;28;20026;-73
2022/04/11 03:55:39;;;;;;;13.70;4.37;;;;;;;;;;5008683;28;20033;-74
2022/04/11 03:58:04;;;;;;;17.77;7.93;;;;;;;;;;5008140;28;20042;-73
2022/04/11 04:00:30;;;;;;;14.37;5.47;;;;;;;;;;5008051;28;20037;-72
2022/04/11 04:03:06;;;;;;;11.50;4.40;;;;;;;;;;5009390;28;20470;-73
2022/04/11 04:05:31;;;;;;;8.07;4.17;;;;;;;;;;5010169;28;20061;-73
2022/04/11 04:07:57;;;;;;;6.97;4.53;;;;;;;;;;5015260;28;20029;-73
2022/04/11 04:10:26;;;;;;;10.87;4.83;;;;;;;;;;5015584;28;20034;-72
2022/04/11 04:13:00;;;;;;;5.07;3.43;;;;;;;;;;5018286;28;20025;-73
2022/04/11 04:15:26;;;;;;;8.27;4.40;;;;;;;;;;5012670;28;20034;-73
2022/04/11 04:17:52;;;;;;;12.43;4.23;;;;;;;;;;5011798;28;20497;-73
2022/04/11 04:20:18;;;;;;;8.77;4.23;;;;;;;;;;5011466;28;20065;-73
2022/04/11 04:22:44;;;;;;;8.07;4.53;;;;;;;;;;5012923;28;20116;-73
2022/04/11 04:25:10;;;;;;;6.87;4.30;;;;;;;;;;5027742;28;20120;-74
2022/04/11 04:27:35;;;;;;;7.57;3.73;;;;;;;;;;5011564;28;20022;-74
2022/04/11 04:30:01;;;;;;;9.40;4.47;;;;;;;;;;5012793;28;20517;-72
2022/04/11 04:32:27;;;;;;;6.30;3.73;;;;;;;;;;5012379;28;20054;-72
2022/04/11 04:34:52;;;;;;;6.47;4.17;;;;;;;;;;5012612;28;20029;-74
2022/04/11 04:37:18;;;;;;;10.40;5.03;;;;;;;;;;5010978;28;20382;-74
2022/04/11 04:39:45;;;;;;;8.97;4.33;;;;;;;;;;5012629;28;20060;-73
2022/04/11 04:42:10;;;;;;;6.83;3.93;;;;;;;;;;5010516;28;20029;-73
2022/04/11 04:44:42;;;;;;;6.37;3.80;;;;;;;;;;5011186;28;20527;-73
2022/04/11 04:47:10;;;;;;;8.68;4.85;;;;;;;;;;5011972;28;20069;-73
2022/04/11 04:49:35;;;;;;;13.03;4.23;;;;;;;;;;5012355;28;20033;-73
2022/04/11 04:52:01;;;;;;;8.87;4.83;;;;;;;;;;5011066;28;20080;-73
2022/04/11 04:54:27;;;;;;;6.93;3.83;;;;;;;;;;5012455;28;20068;-73
2022/04/11 04:56:52;;;;;;;10.43;4.57;;;;;;;;;;5010647;28;20080;-73
2022/04/11 04:59:18;;;;;;;10.83;5.90;;;;;;;;;;5012188;28;20034;-74
2022/04/11 05:01:43;;;;;;;9.27;3.80;;;;;;;;;;5012048;28;20342;-72
2022/04/11 05:04:09;;;;;;;8.37;4.00;;;;;;;;;;5012032;28;20534;-73
2022/04/11 05:06:34;;;;;;;7.53;3.57;;;;;;;;;;5010704;28;20033;-73
2022/04/11 05:09:00;;;;;;;9.50;4.77;;;;;;;;;;5010651;28;20026;-74
2022/04/11 05:11:26;;;;;;;10.53;4.80;;;;;;;;;;5010307;28;20028;-73
2022/04/11 05:13:51;;;;;;;8.27;4.33;;;;;;;;;;5010577;28;20144;-74
2022/04/11 05:16:18;;;;;;;9.00;4.80;;;;;;;;;;4992426;28;20552;-73
2022/04/11 05:18:47;;;;;;;10.93;4.40;;;;;;;;;;4989037;28;20036;-73
2022/04/11 05:21:13;;;;;;;10.07;5.00;;;;;;;;;;5003748;28;20054;-74
2022/04/11 05:23:38;;;;;;;12.63;4.70;;;;;;;;;;5009805;28;20084;-73
2022/04/11 05:26:07;;;;;;;8.37;4.67;;;;;;;;;;5022937;28;20033;-73
2022/04/11 05:28:34;;;;;;;10.33;4.23;;;;;;;;;;5007147;28;20044;-70
2022/04/11 05:31:00;;;;;;;7.20;4.23;;;;;;;;;;5005803;28;20067;-73
2022/04/11 05:33:26;;;;;;;9.93;3.77;;;;;;;;;;4993738;28;20410;-74
2022/04/11 05:35:52;;;;;;;8.23;4.53;;;;;;;;;;5000588;28;20030;-74
2022/04/11 05:38:19;;;;;;;9.43;4.03;;;;;;;;;;4996740;28;20053;-74
2022/04/11 05:40:45;;;;;;;11.03;5.00;;;;;;;;;;5005972;28;20397;-74
2022/04/11 05:43:13;;;;;;;9.73;4.20;;;;;;;;;;4991323;28;20038;-72
2022/04/11 05:45:39;;;;;;;11.10;4.17;;;;;;;;;;4993281;28;20377;-73
2022/04/11 05:48:05;;;;;;;9.00;4.50;;;;;;;;;;5023469;28;20040;-73
2022/04/11 05:50:31;;;;;;;9.73;5.40;;;;;;;;;;5016232;28;20029;-73
2022/04/11 05:52:57;;;;;;;13.13;5.00;;;;;;;;;;5012412;28;20460;-73
2022/04/11 05:55:26;;;;;;;13.23;5.03;;;;;;;;;;4985386;28;20148;-74
2022/04/11 05:57:54;;;;;;;13.97;4.90;;;;;;;;;;5011510;28;20030;-74
2022/04/11 06:00:22;;;;;;;13.23;4.67;;;;;;;;;;5019137;28;20068;-70
2022/04/11 06:02:51;;;;;;;11.10;5.77;;;;;;;;;;5000351;28;20030;-73
2022/04/11 06:05:26;;;;;;;11.53;5.33;;;;;;;;;;4998256;28;20049;-74
2022/04/11 06:07:54;;;;;;;8.87;5.33;;;;;;;;;;5007800;28;20026;-71
2022/04/11 06:10:20;;;;;;;19.13;5.30;;;;;;;;;;5004212;28;20045;-72
2022/04/11 06:12:46;;;;;;;11.00;4.47;;;;;;;;;;5015901;28;20042;-71
2022/04/11 06:15:17;;;;;;;9.73;4.73;;;;;;;;;;4994577;28;20041;-74
2022/04/11 06:17:44;;;;;;;9.10;4.80;;;;;;;;;;5004202;28;20037;-72
2022/04/11 06:20:12;;;;;;;11.37;5.77;;;;;;;;;;5011111;28;20030;-72
2022/04/11 06:22:40;;;;;;;16.67;6.27;;;;;;;;;;5015330;28;20041;-72
2022/04/11 06:25:13;;;;;;;10.57;4.53;;;;;;;;;;4993560;28;20105;-72
2022/04/11 06:27:39;;;;;;;12.27;6.40;;;;;;;;;;5018482;28;20026;-73
2022/04/11 06:30:08;;;;;;;10.40;6.10;;;;;;;;;;4995210;28;20093;-74
2022/04/11 06:32:34;;;;;;;13.83;5.67;;;;;;;;;;5013832;28;20033;-73
2022/04/11 06:35:12;;;;;;;9.47;5.03;;;;;;;;;;5008478;28;20462;-75
2022/04/11 06:37:38;;;;;;;12.50;5.50;;;;;;;;;;4983665;28;20160;-74
2022/04/11 06:40:08;;;;;;;14.97;6.33;;;;;;;;;;5009252;28;20141;-74
2022/04/11 06:42:37;;;;;;;12.83;4.87;;;;;;;;;;5003292;28;20125;-73
2022/04/11 06:45:05;;;;;;;10.00;5.03;;;;;;;;;;5006271;28;20018;-73
2022/04/11 06:47:36;;;;;;;10.47;5.47;;;;;;;;;;4992632;28;20116;-73
2022/04/11 06:50:08;;;;;;;13.63;5.50;;;;;;;;;;5010023;28;20056;-75
2022/04/11 06:52:34;;;;;;;14.73;5.38;;;;;;;;;;5010144;28;20029;-76
2022/04/11 06:55:00;;;;;;;18.37;5.20;;;;;;;;;;4975048;28;20037;-74
2022/04/11 06:57:26;;;;;;;11.70;5.60;;;;;;;;;;4985229;28;20462;-73
2022/04/11 06:59:52;;;;;;;15.80;5.93;;;;;;;;;;4989454;28;20113;-74
2022/04/11 07:02:21;;;;;;;12.73;5.50;;;;;;;;;;4986986;28;20100;-73
2022/04/11 07:04:51;;;;;;;9.13;5.13;;;;;;;;;;4991771;28;20034;-73
2022/04/11 07:07:18;;;;;;;15.37;6.93;;;;;;;;;;4995527;28;20045;-75
2022/04/11 07:09:44;;;;;;;12.43;4.60;;;;;;;;;;5011261;28;20117;-73
2022/04/11 07:12:14;;;;;;;19.63;5.90;;;;;;;;;;5001941;28;20036;-72
2022/04/11 07:14:43;;;;;;;12.97;5.80;;;;;;;;;;4969745;28;20034;-75
2022/04/11 07:17:09;;;;;;;8.00;4.30;;;;;;;;;;4999642;28;20426;-75
2022/04/11 07:19:35;;;;;;;12.60;5.00;;;;;;;;;;4992271;28;20036;-73
2022/04/11 07:22:01;;;;;;;11.87;4.97;;;;;;;;;;4990832;28;20612;-73
2022/04/11 07:24:27;;;;;;;12.77;6.33;;;;;;;;;;5005697;28;20045;-73
2022/04/11 07:26:53;;;;;;;16.23;5.00;;;;;;;;;;4999946;28;20030;-76
2022/04/11 07:29:19;;;;;;;10.27;5.30;;;;;;;;;;5007141;28;20225;-72
2022/04/11 07:31:46;;;;;;;9.33;4.17;;;;;;;;;;5006352;28;20045;-74
2022/04/11 07:34:12;;;;;;;9.57;4.20;;;;;;;;;;4997652;28;20038;-74
2022/04/11 07:36:40;;;;;;;18.83;5.63;;;;;;;;;;4991366;28;20034;-73
2022/04/11 07:39:12;;;;;;;10.90;5.80;;;;;;;;;;4991784;28;20030;-73
2022/04/11 07:41:39;;;;;;;10.68;5.55;;;;;;;;;;5000661;28;20034;-76
2022/04/11 07:44:05;;;;;;;10.63;4.23;;;;;;;;;;4991470;28;20169;-73
2022/04/11 07:46:33;;;;;;;9.10;4.40;;;;;;;;;;4991448;28;20034;-74
2022/04/11 07:49:00;;;;;;;7.97;5.13;;;;;;;;;;4996423;28;20030;-76
2022/04/11 07:51:26;;;;;;;15.57;5.67;;;;;;;;;;4998586;28;20037;-74
2022/04/11 07:53:55;;;;;;;9.77;5.30;;;;;;;;;;5010331;28;20518;-74
2022/04/11 07:56:21;;;;;;;13.17;5.03;;;;;;;;;;4988915;28;20051;-73
2022/04/11 07:58:50;;;;;;;6.20;3.90;;;;;;;;;;4998271;28;20034;-76
2022/04/11 08:01:16;;;;;;;8.10;3.73;;;;;;;;;;5004083;28;20085;-74
2022/04/11 08:03:46;;;;;;;15.93;5.37;;;;;;;;;;5005147;28;20561;-73
2022/04/11 08:06:12;;;;;;;11.17;2.90;;;;;;;;;;4995849;28;21402;-76
2022/04/11 08:08:46;;;;;;;6.23;2.53;;;;;;;;;;4993141;28;20192;-74
2022/04/11 08:11:15;;;;;;;6.00;2.93;;;;;;;;;;5004196;28;20037;-72
2022/04/11 08:13:42;;;;;;;8.20;3.37;;;;;;;;;;5004289;28;20041;-73
2022/04/11 08:16:08;;;;;;;8.33;2.73;;;;;;;;;;5001579;28;20479;-75
2022/04/11 08:18:34;;;;;;;9.83;3.63;;;;;;;;;;4995113;28;20033;-74
2022/04/11 08:21:02;;;;;;;6.83;2.80;;;;;;;;;;5010333;28;20089;-73
2022/04/11 08:23:31;;;;;;;6.53;3.33;;;;;;;;;;4998356;28;20455;-74
2022/04/11 08:25:59;;;;;;;9.33;3.03;;;;;;;;;;4989184;28;20045;-74
2022/04/11 08:28:25;;;;;;;7.13;2.90;;;;;;;;;;5008657;28;20045;-74
2022/04/11 08:30:51;;;;;;;4.87;2.43;;;;;;;;;;5004774;28;20124;-73
2022/04/11 08:33:17;;;;;;;4.13;2.47;;;;;;;;;;4985250;28;20046;-74
2022/04/11 08:35:43;;;;;;;8.40;3.13;;;;;;;;;;5006089;28;20060;-74
2022/04/11 08:38:10;;;;;;;5.97;2.77;;;;;;;;;;4991856;28;20053;-74
2022/04/11 08:40:37;;;;;;;7.60;2.30;;;;;;;;;;4984162;28;20038;-75
2022/04/11 08:43:06;;;;;;;5.93;3.00;;;;;;;;;;4998594;28;20072;-74
2022/04/11 08:45:33;;;;;;;6.07;2.30;;;;;;;;;;4986563;28;20038;-74
2022/04/11 08:48:02;;;;;;;10.50;3.27;;;;;;;;;;4992444;28;20520;-75
2022/04/11 08:50:28;;;;;;;3.13;2.27;;;;;;;;;;5008844;28;20034;-75
2022/04/11 08:52:57;;;;;;;6.53;2.77;;;;;;;;;;5008513;28;20034;-75
2022/04/11 08:55:24;;;;;;;3.60;2.33;;;;;;;;;;4980412;28;20458;-74
2022/04/11 08:57:50;;;;;;;3.53;1.93;;;;;;;;;;4995767;28;20064;-76
2022/04/11 09:00:21;;;;;;;7.33;2.10;;;;;;;;;;4987004;28;20034;-75
2022/04/11 09:02:48;;;;;;;2.53;1.80;;;;;;;;;;5002255;28;20287;-75
2022/04/11 09:05:25;;;;;;;2.87;1.60;;;;;;;;;;4994702;28;20037;-74
2022/04/11 09:07:56;;;;;;;2.93;1.50;;;;;;;;;;4998861;28;20039;-76
2022/04/11 09:10:27;;;;;;;2.53;1.77;;;;;;;;;;4999470;28;20030;-75
2022/04/11 09:13:05;;;;;;;2.25;1.45;;;;;;;;;;5020438;28;20805;-75
2022/04/11 09:15:47;;;;;;;6.00;2.00;;;;;;;;;;5012426;28;20507;-76
2022/04/11 09:18:13;;;;;;;1.63;1.40;;;;;;;;;;5005869;28;20045;-75
2022/04/11 09:20:43;;;;;;;4.57;1.80;;;;;;;;;;4994867;28;20330;-75
2022/04/11 09:23:20;;;;;;;2.83;1.20;;;;;;;;;;4994234;28;20058;-75
2022/04/11 09:25:48;;;;;;;2.63;1.43;;;;;;;;;;4991796;28;20046;-76
2022/04/11 09:28:16;;;;;;;3.90;1.63;;;;;;;;;;5007969;28;20037;-74
2022/04/11 09:30:52;;;;;;;1.87;1.57;;;;;;;;;;4994031;28;20064;-75
2022/04/11 09:33:18;;;;;;;1.87;0.93;;;;;;;;;;4992230;28;20118;-74
2022/04/11 09:35:49;;;;;;;4.73;1.57;;;;;;;;;;5002555;28;20486;-75
2022/04/11 09:38:23;;;;;;;2.47;1.10;;;;;;;;;;4997532;28;20049;-74
2022/04/11 09:40:55;;;;;;;3.17;1.37;;;;;;;;;;5008642;28;20037;-75
2022/04/11 09:43:32;;;;;;;6.57;1.55;;;;;;;;;;4990160;28;20042;-76
2022/04/11 09:46:02;;;;;;;2.67;1.63;;;;;;;;;;5006742;28;20037;-72
2022/04/11 09:48:36;;;;;;;8.63;2.00;;;;;;;;;;5009672;28;20044;-75
2022/04/11 09:51:10;;;;;;;9.00;1.37;;;;;;;;;;5006854;28;20120;-74
2022/04/11 09:53:39;;;;;;;3.95;1.13;;;;;;;;;;4997031;28;20030;-74
2022/04/11 09:56:08;;;;;;;2.83;1.00;;;;;;;;;;4997038;28;20090;-75
2022/04/11 09:58:43;;;;;;;2.05;1.10;;;;;;;;;;4993763;28;21651;-73
2022/04/11 10:01:09;;;;;;;1.33;0.88;;;;;;;;;;4990044;28;20061;-73
2022/04/11 10:03:37;;;;;;;10.02;1.77;;;;;;;;;;4996354;28;20114;-74
2022/04/11 10:06:05;;;;;;;7.22;1.92;;;;;;;;;;4994296;28;20037;-74
2022/04/11 10:08:35;;;;;;;1.92;1.20;;;;;;;;;;5011179;28;20057;-75
2022/04/11 10:11:04;;;;;;;2.13;1.03;;;;;;;;;;4997102;28;20081;-75
2022/04/11 10:13:36;;;;;;;3.05;1.15;;;;;;;;;;4997319;28;20018;-75
2022/04/11 10:19:33;;;;;;;7.20;1.70;;;;;;;;;;4986612;28;20046;-76
2022/04/11 10:22:14;;;;;;;2.10;1.17;;;;;;;;;;4993520;28;20046;-75
2022/04/11 10:25:11;;;;;;;6.72;1.17;;;;;;;;;;4993360;28;20038;-74
2022/04/11 10:27:38;;;;;;;2.40;1.15;;;;;;;;;;4992658;28;20033;-75
2022/04/11 10:30:33;;;;;;;2.65;1.27;;;;;;;;;;5002209;28;20034;-74
2022/04/11 10:33:00;;;;;;;1.43;0.83;;;;;;;;;;4996207;28;20034;-73
2022/04/11 10:35:53;;;;;;;2.47;0.80;;;;;;;;;;5005749;28;20501;-73
2022/04/11 10:38:20;;;;;;;3.85;0.90;;;;;;;;;;5003979;28;20052;-75
2022/04/11 10:40:51;;;;;;;3.53;1.02;;;;;;;;;;5007493;28;20398;-74
2022/04/11 10:43:23;;;;;;;1.43;0.70;;;;;;;;;;4992235;28;20077;-73
2022/04/11 10:45:58;;;;;;;1.42;0.90;;;;;;;;;;5012938;28;20494;-75
2022/04/11 10:48:59;;;;;;;2.40;1.23;;;;;;;;;;4998027;28;20046;-75
2022/04/11 10:51:25;;;;;;;2.27;1.20;;;;;;;;;;5004093;28;20044;-74
2022/04/11 10:54:21;;;;;;;3.72;1.35;;;;;;;;;;5017286;28;20083;-75
2022/04/11 10:56:52;;;;;;;2.67;1.27;;;;;;;;;;4998883;28;20025;-75
2022/04/11 11:00:08;;;;;;;5.53;1.17;;;;;;;;;;4998272;28;20052;-75
2022/04/11 11:02:50;;;;;;;1.77;1.13;;;;;;;;;;4995210;28;20042;-73
2022/04/11 11:05:41;;;;;;;4.57;1.27;;;;;;;;;;5001803;28;20045;-73
2022/04/11 11:08:17;;;;;;;4.22;1.42;;;;;;;;;;4984788;28;20124;-76
2022/04/11 11:10:50;;;;;;;2.25;0.88;;;;;;;;;;4992751;28;20229;-74
2022/04/11 11:13:48;;;;;;;5.57;2.20;;;;;;;;;;4994851;28;20046;-74
2022/04/11 11:16:20;;;;;;;5.30;3.00;;;;;;;;;;4990725;28;20022;-75
2022/04/11 11:18:51;;;;;;;1.70;1.13;;;;;;;;;;4990973;28;20128;-75
2022/04/11 11:21:30;;;;;;;2.45;1.00;;;;;;;;;;4995219;28;20057;-74
2022/04/11 11:24:14;;;;;;;1.95;1.25;;;;;;;;;;4996521;28;20093;-74
2022/04/11 11:27:04;;;;;;;5.10;1.48;;;;;;;;;;4991777;28;20033;-73
2022/04/11 11:29:33;;;;;;;1.15;0.98;;;;;;;;;;4996430;28;20034;-76
2022/04/11 11:32:12;;;;;;;2.55;1.88;;;;;;;;;;4997505;28;20518;-73
2022/04/11 11:34:40;;;;;;;3.05;1.20;;;;;;;;;;5000326;28;20025;-74
2022/04/11 11:37:12;;;;;;;1.92;1.05;;;;;;;;;;5014046;28;20128;-73
2022/04/11 11:39:45;;;;;;;3.88;1.00;;;;;;;;;;4995114;28;20018;-74
2022/04/11 11:42:15;;;;;;;1.70;0.90;;;;;;;;;;5001579;28;20068;-74
2022/04/11 11:44:46;;;;;;;3.65;1.10;;;;;;;;;;5017533;28;20080;-74
2022/04/11 11:47:14;;;;;;;1.55;0.98;;;;;;;;;;5015453;28;20022;-73
2022/04/11 11:49:45;;;;;;;0.98;0.70;;;;;;;;;;5014998;28;20042;-74
2022/04/11 11:52:15;;;;;;;2.45;0.93;;;;;;;;;;5023996;28;20381;-75
2022/04/11 11:54:47;;;;;;;3.03;1.13;;;;;;;;;;5013777;28;20038;-75
2022/04/11 11:57:15;;;;;;;10.60;1.23;;;;;;;;;;4988865;28;20030;-74
2022/04/11 11:59:55;;;;;;;7.97;1.20;;;;;;;;;;5008969;28;20038;-74
2022/04/11 12:05:24;;;;;;;3.45;1.23;;;;;;;;;;4994912;28;20558;-73
2022/04/11 12:08:17;;;;;;;2.67;1.20;;;;;;;;;;5000650;28;20053;-76
2022/04/11 12:10:53;;;;;;;1.67;0.93;;;;;;;;;;4992927;28;20046;-74
2022/04/11 12:13:49;;;;;;;2.08;0.98;;;;;;;;;;4994670;28;20074;-74
2022/04/11 12:16:17;;;;;;;3.78;0.98;;;;;;;;;;4998349;28;20045;-75
2022/04/11 12:18:58;;;;;;;2.35;1.00;;;;;;;;;;4991458;28;20044;-75
2022/04/11 12:21:39;;;;;;;2.38;1.10;;;;;;;;;;4997847;28;20144;-75
2022/04/11 12:24:09;;;;;;;1.73;1.10;;;;;;;;;;5016024;28;20148;-75
2022/04/11 12:26:39;;;;;;;1.65;0.90;;;;;;;;;;4987140;28;20030;-74
2022/04/11 12:29:17;;;;;;;2.33;1.17;;;;;;;;;;5009138;28;20557;-74
2022/04/11 12:31:56;;;;;;;5.15;1.92;;;;;;;;;;5006831;28;20026;-77
2022/04/11 12:34:32;;;;;;;3.03;1.40;;;;;;;;;;4996836;28;20033;-73
2022/04/11 12:37:05;;;;;;;0.85;0.80;;;;;;;;;;4986559;28;20111;-74
2022/04/11 12:39:32;;;;;;;1.83;0.90;;;;;;;;;;4996352;28;20560;-73
2022/04/11 12:41:58;;;;;;;6.97;1.10;;;;;;;;;;5010311;28;20029;-74
2022/04/11 12:44:37;;;;;;;3.05;0.80;;;;;;;;;;5013038;28;20048;-74
2022/04/11 12:47:12;;;;;;;2.05;1.00;;;;;;;;;;4994463;28;20117;-72
2022/04/11 12:49:57;;;;;;;4.47;0.88;;;;;;;;;;4992935;28;20744;-73
2022/04/11 12:52:29;;;;;;;4.05;1.10;;;;;;;;;;4994742;28;20662;-70
2022/04/11 12:55:07;;;;;;;2.80;1.02;;;;;;;;;;4994506;28;20268;-74
2022/04/11 12:57:35;;;;;;;3.40;0.98;;;;;;;;;;4991956;28;20069;-74
2022/04/11 13:00:15;;;;;;;6.22;1.27;;;;;;;;;;4991256;28;20049;-74
2022/04/11 13:02:41;;;;;;;3.65;0.80;;;;;;;;;;4994072;28;20028;-74
2022/04/11 13:05:12;;;;;;;2.08;0.93;;;;;;;;;;5010652;28;20088;-73
2022/04/11 13:07:46;;;;;;;2.20;1.08;;;;;;;;;;5010484;28;20507;-73
2022/04/11 13:10:14;;;;;;;4.18;1.10;;;;;;;;;;5008862;28;20484;-73
2022/04/11 13:12:40;;;;;;;1.90;1.02;;;;;;;;;;4998634;28;20172;-75
2022/04/11 13:15:07;;;;;;;2.03;0.93;;;;;;;;;;4997587;28;20125;-72
2022/04/11 13:20:26;;;;;;;1.55;0.95;;;;;;;;;;4993581;28;20044;-71
2022/04/11 13:22:56;;;;;;;3.45;1.20;;;;;;;;;;4994241;28;20061;-72
2022/04/11 13:25:23;;;;;;;5.38;1.45;;;;;;;;;;4997956;28;20057;-75
2022/04/11 13:27:50;;;;;;;5.10;1.30;;;;;;;;;;4994218;28;20045;-73
2022/04/11 13:30:16;;;;;;;2.38;1.25;;;;;;;;;;5008064;28;21945;-76
2022/04/11 13:32:43;;;;;;;1.10;0.88;;;;;;;;;;4994322;28;20030;-75
2022/04/11 13:35:09;;;;;;;1.25;0.95;;;;;;;;;;4998485;28;20095;-74
2022/04/11 13:37:38;;;;;;;1.58;1.08;;;;;;;;;;4982299;28;21083;-74
2022/04/11 13:40:06;;;;;;;2.25;1.05;;;;;;;;;;4991014;28;20026;-73
2022/04/11 13:42:39;;;;;;;3.30;1.15;;;;;;;;;;5013129;28;20041;-74
2022/04/11 13:45:06;;;;;;;3.92;1.17;;;;;;;;;;5010480;28;20026;-73
2022/04/11 13:47:38;;;;;;;5.32;2.53;;;;;;;;;;4992325;28;21256;-74
2022/04/11 13:50:04;;;;;;;4.10;1.38;;;;;;;;;;4993932;28;20096;-76
2022/04/11 13:52:30;;;;;;;3.92;1.38;;;;;;;;;;4999193;28;20050;-75
2022/04/11 13:54:56;;;;;;;2.80;0.90;;;;;;;;;;5012367;28;20098;-74
2022/04/11 13:57:24;;;;;;;3.30;0.90;;;;;;;;;;4989361;28;20054;-73
2022/04/11 13:59:52;;;;;;;4.65;1.15;;;;;;;;;;4992599;28;20103;-74
2022/04/11 14:02:17;;;;;;;2.22;1.13;;;;;;;;;;4995603;28;20033;-73
2022/04/11 14:04:43;;;;;;;1.48;1.00;;;;;;;;;;4998439;28;20064;-75
2022/04/11 14:07:12;;;;;;;5.20;1.30;;;;;;;;;;4998486;28;20124;-73
2022/04/11 14:09:37;;;;;;;2.58;1.30;;;;;;;;;;5020726;28;20802;-73
2022/04/11 14:12:07;;;;;;;11.27;5.75;;;;;;;;;;5008485;28;20029;-74
2022/04/11 14:14:33;;;;;;;1.90;1.65;;;;;;;;;;4981587;28;20371;-75
2022/04/11 14:16:58;;;;;;;2.40;0.80;;;;;;;;;;4992242;28;20501;-72
2022/04/11 14:19:24;;;;;;;1.25;0.93;;;;;;;;;;5036832;28;20040;-73
2022/04/11 14:21:49;;;;;;;13.05;5.28;;;;;;;;;;5038485;28;20774;-74
2022/04/11 14:24:15;;;;;;;3.88;1.35;;;;;;;;;;5024610;28;20362;-72
2022/04/11 14:26:40;;;;;;;3.05;1.20;;;;;;;;;;5015380;28;20754;-71
2022/04/11 14:29:07;;;;;;;1.65;1.00;;;;;;;;;;5027224;28;20088;-72
2022/04/11 14:31:33;;;;;;;5.85;1.25;;;;;;;;;;5009760;28;20049;-72
2022/04/11 14:33:59;;;;;;;1.70;1.20;;;;;;;;;;5012337;28;20045;-72
2022/04/11 14:36:27;;;;;;;3.30;1.08;;;;;;;;;;5027067;28;21351;-71
2022/04/11 14:38:53;;;;;;;5.28;2.15;;;;;;;;;;5028624;28;20180;-75
2022/04/11 14:41:18;;;;;;;3.38;1.20;;;;;;;;;;5010561;28;20191;-74
2022/04/11 14:43:44;;;;;;;3.80;1.00;;;;;;;;;;5027736;28;20033;-73
2022/04/11 14:46:10;;;;;;;1.85;1.00;;;;;;;;;;5018859;28;20474;-76
2022/04/11 14:48:35;;;;;;;3.58;1.25;;;;;;;;;;5021140;28;20093;-74
2022/04/11 14:51:01;;;;;;;2.65;1.10;;;;;;;;;;5022375;28;20401;-73
2022/04/11 14:53:27;;;;;;;2.97;1.23;;;;;;;;;;5019358;28;20038;-74
2022/04/11 14:55:54;;;;;;;3.58;1.17;;;;;;;;;;5018765;28;20516;-74
2022/04/11 14:58:21;;;;;;;2.20;1.40;;;;;;;;;;5043489;28;20025;-76
2022/04/11 15:00:46;;;;;;;2.95;1.60;;;;;;;;;;5027611;28;20036;-74